createdAt,value
2022-11-28T00:00:02.003Z,996.86
2022-11-28T00:05:03.377Z,996.74
2022-11-28T00:10:02.131Z,996.74
2022-11-28T00:15:01.979Z,996.69
2022-11-28T00:20:02.012Z,996.75
2022-11-28T00:30:01.562Z,996.34
2022-11-28T00:35:01.876Z,996.54
2022-11-28T00:40:01.915Z,996.45
2022-11-28T00:45:02.136Z,996.39
2022-11-28T00:50:02.187Z,996.35
2022-11-28T00:55:02.117Z,996.17
2022-11-28T01:00:01.328Z,996.12
2022-11-28T01:05:01.336Z,996.04
2022-11-28T01:10:02.163Z,996.02
2022-11-28T01:15:01.491Z,995.92
2022-11-28T01:20:02.028Z,995.94
2022-11-28T01:25:01.280Z,996.05
2022-11-28T01:30:01.362Z,995.98
2022-11-28T01:35:01.532Z,995.8
2022-11-28T01:40:01.728Z,995.79
2022-11-28T01:45:01.663Z,995.72
2022-11-28T01:50:09.784Z,995.62
2022-11-28T01:55:01.881Z,995.51
2022-11-28T02:00:02.013Z,995.39
2022-11-28T02:05:02.224Z,995.28
2022-11-28T02:10:02.204Z,995.2
2022-11-28T02:15:01.351Z,995.11
2022-11-28T02:20:01.554Z,995.08
2022-11-28T02:25:01.797Z,995.06
2022-11-28T02:30:01.934Z,995.16
2022-11-28T02:35:02.098Z,995.19
2022-11-28T02:40:01.921Z,995.19
2022-11-28T02:45:01.898Z,995.08
2022-11-28T02:50:01.245Z,995.02
2022-11-28T02:55:01.514Z,995.02
2022-11-28T03:00:01.478Z,995.14
2022-11-28T03:05:01.781Z,995.13
2022-11-28T03:10:02.153Z,995.02
2022-11-28T03:15:01.738Z,994.86
2022-11-28T03:20:01.884Z,995.01
2022-11-28T03:25:01.352Z,994.94
2022-11-28T03:30:01.545Z,994.86
2022-11-28T03:35:01.525Z,994.82
2022-11-28T03:40:01.513Z,994.89
2022-11-28T03:45:01.537Z,994.75
2022-11-28T03:50:01.844Z,994.76
2022-11-28T03:55:01.657Z,994.57
2022-11-28T04:00:02.151Z,994.56
2022-11-28T04:05:02.345Z,994.81
2022-11-28T04:10:02.127Z,994.94
2022-11-28T04:15:01.906Z,994.93
2022-11-28T04:20:01.890Z,994.96
2022-11-28T04:25:01.591Z,994.96
2022-11-28T04:30:02.167Z,994.93
2022-11-28T04:35:01.564Z,994.94
2022-11-28T04:40:01.303Z,994.89
2022-11-28T04:45:01.640Z,995.02
2022-11-28T04:50:01.731Z,995.15
2022-11-28T04:55:01.599Z,995.11
2022-11-28T05:00:01.661Z,995.09
2022-11-28T05:05:01.980Z,995.04
2022-11-28T05:10:02.261Z,994.96
2022-11-28T05:15:01.784Z,994.89
2022-11-28T05:20:01.868Z,994.86
2022-11-28T05:25:02.177Z,994.91
2022-11-28T05:30:02.195Z,994.94
2022-11-28T05:35:01.535Z,995.09
2022-11-28T05:40:02.274Z,995.09
2022-11-28T05:45:01.773Z,995.23
2022-11-28T05:50:01.958Z,995.16
2022-11-28T05:55:02.258Z,995.21
2022-11-28T06:00:01.709Z,995.19
2022-11-28T06:05:16.541Z,995.07
2022-11-28T06:10:01.890Z,995.04
2022-11-28T06:15:01.678Z,995.12
2022-11-28T06:20:01.569Z,995.08
2022-11-28T06:25:01.680Z,995.12
2022-11-28T06:30:01.329Z,995.19
2022-11-28T06:35:01.630Z,995.17
2022-11-28T06:40:01.952Z,995.18
2022-11-28T06:45:01.970Z,995.05
2022-11-28T06:50:01.825Z,994.96
2022-11-28T06:55:01.724Z,994.86
2022-11-28T07:00:01.571Z,994.85
2022-11-28T07:05:01.597Z,994.73
2022-11-28T07:10:01.774Z,994.74
2022-11-28T07:15:02.125Z,994.95
2022-11-28T07:20:02.012Z,994.99
2022-11-28T07:25:01.676Z,995.02
2022-11-28T07:30:01.708Z,995.09
2022-11-28T07:35:01.478Z,995.08
2022-11-28T07:40:01.322Z,995.16
2022-11-28T07:45:01.763Z,995.16
2022-11-28T07:50:02.189Z,995.13
2022-11-28T07:55:01.276Z,995.15
2022-11-28T08:00:01.319Z,995.15
2022-11-28T08:05:01.678Z,995.14
2022-11-28T08:10:01.532Z,995.11
2022-11-28T08:15:02.064Z,995.14
2022-11-28T08:20:01.897Z,995.25
2022-11-28T08:25:01.924Z,995.26
2022-11-28T08:30:01.948Z,995.2
2022-11-28T08:35:02.008Z,995.12
2022-11-28T08:40:02.080Z,995.19
2022-11-28T08:45:01.518Z,995.2
2022-11-28T08:50:01.640Z,995.28
2022-11-28T08:55:02.024Z,995.25
2022-11-28T09:00:01.760Z,995.23
2022-11-28T09:05:02.129Z,995.2
2022-11-28T09:10:01.941Z,995.28
2022-11-28T09:15:01.873Z,995.27
2022-11-28T09:20:02.228Z,995.28
2022-11-28T09:25:01.303Z,995.32
2022-11-28T09:30:01.262Z,995.3
2022-11-28T09:35:01.671Z,995.3
2022-11-28T09:40:13.902Z,995.29
2022-11-28T09:45:01.600Z,995.29
2022-11-28T09:50:01.945Z,995.3
2022-11-28T09:55:02.008Z,995.28
2022-11-28T10:00:01.425Z,995.28
2022-11-28T10:05:01.613Z,995.28
2022-11-28T10:10:01.771Z,995.31
2022-11-28T10:15:02.204Z,995.2
2022-11-28T10:20:02.301Z,995.23
2022-11-28T10:25:01.989Z,995.23
2022-11-28T10:30:01.887Z,995.26
2022-11-28T10:35:01.905Z,995.3
2022-11-28T10:40:01.904Z,995.29
2022-11-28T10:45:01.848Z,995.28
2022-11-28T10:50:02.167Z,995.28
2022-11-28T10:55:02.053Z,995.26
2022-11-28T11:00:01.993Z,995.22
2022-11-28T11:05:02.120Z,995.22
2022-11-28T11:10:02.238Z,995.22
2022-11-28T11:15:02.219Z,995.24
2022-11-28T11:20:02.109Z,995.2
2022-11-28T11:25:01.576Z,995.15
2022-11-28T11:30:01.679Z,995.18
2022-11-28T11:35:01.861Z,995.22
2022-11-28T11:40:01.740Z,995.15
2022-11-28T11:45:01.737Z,995.17
2022-11-28T11:50:02.131Z,995.14
2022-11-28T11:55:01.772Z,995.17
2022-11-28T12:00:01.787Z,995.16
2022-11-28T12:05:01.975Z,995.2
2022-11-28T12:10:04.636Z,995.17
2022-11-28T12:15:01.532Z,995.14
2022-11-28T12:20:01.626Z,995.17
2022-11-28T12:25:01.462Z,995.17
2022-11-28T12:30:01.580Z,995.15
2022-11-28T12:35:01.858Z,995.15
2022-11-28T12:40:01.780Z,995.2
2022-11-28T12:45:01.577Z,995.12
2022-11-28T12:50:01.639Z,995.15
2022-11-28T12:55:01.756Z,995.07
2022-11-28T13:00:08.181Z,995.09
2022-11-28T13:05:02.026Z,995.08
2022-11-28T13:10:02.101Z,995.12
2022-11-28T13:15:01.296Z,995.12
2022-11-28T13:20:01.562Z,995.1
2022-11-28T13:25:01.525Z,995.09
2022-11-28T13:30:01.661Z,995.11
2022-11-28T13:35:02.079Z,995.12
2022-11-28T13:40:02.145Z,995.15
2022-11-28T13:45:02.146Z,995.14
2022-11-28T13:50:02.307Z,995.15
2022-11-28T13:55:02.242Z,995.16
2022-11-28T14:00:01.429Z,995.25
2022-11-28T14:05:01.847Z,995.23
2022-11-28T14:10:01.716Z,995.22
2022-11-28T14:15:01.733Z,995.22
2022-11-28T14:20:02.100Z,995.27
2022-11-28T14:25:01.926Z,995.25
2022-11-28T14:30:02.169Z,995.34
2022-11-28T14:35:01.923Z,995.32
2022-11-28T14:40:01.426Z,995.27
2022-11-28T14:45:07.941Z,995.29
2022-11-28T14:50:01.766Z,995.3
2022-11-28T14:55:01.864Z,995.33
2022-11-28T15:00:02.043Z,995.38
2022-11-28T15:05:01.941Z,995.38
2022-11-28T15:10:07.021Z,995.42
2022-11-28T15:15:01.385Z,995.43
2022-11-28T15:20:01.686Z,995.46
2022-11-28T15:25:01.922Z,995.46
2022-11-28T15:30:02.279Z,995.51
2022-11-28T15:35:01.513Z,995.62
2022-11-28T15:40:01.535Z,995.68
2022-11-28T15:45:01.435Z,995.7
2022-11-28T15:50:02.040Z,995.7
2022-11-28T15:55:01.349Z,995.71
2022-11-28T16:00:02.196Z,995.77
2022-11-28T16:05:01.899Z,995.86
2022-11-28T16:10:01.366Z,995.83
2022-11-28T16:15:02.078Z,995.9
2022-11-28T16:20:01.493Z,995.89
2022-11-28T16:25:01.929Z,995.94
2022-11-28T16:30:01.344Z,996.01
2022-11-28T16:35:02.231Z,996.03
2022-11-28T16:40:02.106Z,996
2022-11-28T16:45:01.558Z,996.11
2022-11-28T16:50:01.585Z,996.13
2022-11-28T16:55:01.551Z,996.12
2022-11-28T17:00:01.466Z,996.12
2022-11-28T17:05:01.454Z,996.1
2022-11-28T17:10:01.823Z,996.15
2022-11-28T17:15:01.704Z,996.11
2022-11-28T17:20:01.767Z,996.17
2022-11-28T17:25:01.841Z,996.17
2022-11-28T17:30:01.485Z,996.25
2022-11-28T17:35:01.399Z,996.33
2022-11-28T17:40:01.441Z,996.38
2022-11-28T17:45:01.402Z,996.4
2022-11-28T17:50:01.616Z,996.37
2022-11-28T18:00:01.634Z,996.44
2022-11-28T18:05:01.730Z,996.5
2022-11-28T18:10:01.880Z,996.58
2022-11-28T18:15:01.304Z,996.61
2022-11-28T18:20:01.660Z,996.61
2022-11-28T18:25:01.959Z,996.63
2022-11-28T18:30:01.931Z,996.66
2022-11-28T18:35:02.019Z,996.68
2022-11-28T18:40:06.287Z,996.68
2022-11-28T18:45:01.559Z,996.69
2022-11-28T18:50:01.535Z,996.79
2022-11-28T18:55:01.546Z,996.71
2022-11-28T19:00:01.578Z,996.8
2022-11-28T19:05:01.700Z,996.81
2022-11-28T19:10:01.895Z,996.78
2022-11-28T19:15:02.578Z,996.87
2022-11-28T19:20:01.669Z,996.87
2022-11-28T19:25:02.013Z,996.93
2022-11-28T19:30:02.079Z,996.93
2022-11-28T19:35:02.050Z,996.94
2022-11-28T19:40:02.984Z,996.99
2022-11-28T19:45:01.538Z,996.99
2022-11-28T19:50:01.450Z,997.06
2022-11-28T19:55:02.131Z,997.11
2022-11-28T20:00:01.384Z,997.16
2022-11-28T20:05:02.111Z,997.21
2022-11-28T20:10:01.421Z,997.2
2022-11-28T20:15:01.617Z,997.3
2022-11-28T20:20:01.904Z,997.33
2022-11-28T20:25:01.890Z,997.33
2022-11-28T20:30:01.926Z,997.39
2022-11-28T20:35:02.190Z,997.46
2022-11-28T20:40:07.001Z,997.49
2022-11-28T20:45:02.042Z,997.52
2022-11-28T20:50:02.049Z,997.5
2022-11-28T20:55:01.837Z,997.45
2022-11-28T21:00:01.931Z,997.36
2022-11-28T21:05:02.190Z,997.44
2022-11-28T21:10:01.686Z,997.53
2022-11-28T21:15:01.684Z,997.59
2022-11-28T21:20:01.804Z,997.57
2022-11-28T21:25:01.933Z,997.51
2022-11-28T21:30:01.440Z,997.59
2022-11-28T21:35:04.539Z,997.63
2022-11-28T21:40:01.463Z,997.66
2022-11-28T21:45:01.656Z,997.66
2022-11-28T21:50:01.772Z,997.65
2022-11-28T21:55:02.082Z,997.67
2022-11-28T22:00:02.181Z,997.69
2022-11-28T22:05:01.585Z,997.76
2022-11-28T22:10:01.797Z,997.81
2022-11-28T22:15:01.775Z,997.77
2022-11-28T22:20:02.027Z,997.8
2022-11-28T22:25:01.848Z,997.74
2022-11-28T22:30:02.255Z,997.77
2022-11-28T22:35:01.327Z,997.8
2022-11-28T22:40:01.386Z,997.83
2022-11-28T22:45:01.397Z,997.81
2022-11-28T22:50:01.802Z,997.84
2022-11-28T22:55:01.671Z,997.85
2022-11-28T23:00:01.498Z,997.85
2022-11-28T23:05:01.773Z,997.92
2022-11-28T23:10:01.484Z,997.91
2022-11-28T23:15:01.333Z,997.95
2022-11-28T23:20:01.439Z,997.94
2022-11-28T23:25:01.333Z,997.95
2022-11-28T23:30:01.623Z,997.97
2022-11-28T23:35:01.887Z,998.02
2022-11-28T23:40:01.704Z,998.12
2022-11-28T23:45:01.446Z,998.09
2022-11-28T23:50:01.532Z,998.14
2022-11-28T23:55:01.472Z,998.16
